Time;durP1;ratioP1;P1;durP2;ratioP2;P2;SDS_P1;SDS_P2;PMS_P1;PMS_P2;Temp;Humidity;BMP_temperature;BMP_pressure;BME280_temperature;BME280_humidity;BME280_pressure;Samples;Min_cycle;Max_cycle;Signal;HPM_P1;HPM_P2
2022/07/12 00:03:34;;;;;;;0.35;0.30;;;21.90;64.90;;;;;;10388631;28;20038;-56
2022/07/12 00:08:34;;;;;;;0.93;0.55;;;21.90;64.70;;;;;;10370268;28;20037;-55
2022/07/12 00:13:35;;;;;;;0.98;0.80;;;21.90;64.80;;;;;;10374892;28;20468;-55
2022/07/12 00:18:36;;;;;;;0.80;0.50;;;21.90;65.60;;;;;;10379460;28;20084;-55
2022/07/12 00:23:36;;;;;;;1.65;0.65;;;22.00;67.10;;;;;;10378182;28;20105;-55
2022/07/12 00:28:37;;;;;;;1.42;0.60;;;22.00;67.30;;;;;;10379003;28;20030;-54
2022/07/12 00:33:38;;;;;;;1.50;0.70;;;22.00;66.20;;;;;;10391828;28;20030;-55
2022/07/12 00:38:38;;;;;;;0.60;0.40;;;22.00;65.50;;;;;;10376832;28;20125;-55
2022/07/12 00:43:39;;;;;;;0.65;0.65;;;22.00;65.60;;;;;;10394597;28;20038;-55
2022/07/12 00:48:40;;;;;;;1.30;0.50;;;21.90;65.40;;;;;;10406707;28;20029;-59
2022/07/12 00:53:41;;;;;;;0.50;0.50;;;21.90;65.30;;;;;;10411904;28;20044;-55
2022/07/12 00:58:43;;;;;;;2.53;0.98;;;21.90;65.20;;;;;;10384472;28;20030;-56
2022/07/12 01:03:45;;;;;;;0.65;0.63;;;21.90;65.20;;;;;;10399514;28;20040;-55
2022/07/12 01:08:45;;;;;;;1.52;0.50;;;21.90;65.20;;;;;;10386841;28;20033;-56
2022/07/12 01:13:47;;;;;;;0.85;0.85;;;21.90;65.20;;;;;;10371799;28;20504;-55
2022/07/12 01:18:47;;;;;;;0.88;0.47;;;21.90;65.00;;;;;;10371582;28;20433;-56
2022/07/12 01:23:50;;;;;;;0.43;0.43;;;21.90;65.20;;;;;;10364047;28;20041;-55
2022/07/12 01:28:51;;;;;;;0.63;0.40;;;21.90;64.90;;;;;;10387257;28;20141;-55
2022/07/12 01:33:52;;;;;;;0.40;0.30;;;21.80;64.80;;;;;;10408488;28;20459;-54
2022/07/12 01:38:52;;;;;;;0.50;0.40;;;21.80;64.80;;;;;;10398101;28;20042;-54
2022/07/12 01:43:54;;;;;;;0.30;0.30;;;21.80;64.70;;;;;;10385637;28;20156;-55
2022/07/12 01:48:54;;;;;;;0.77;0.52;;;21.80;64.70;;;;;;10370028;28;20113;-55
2022/07/12 01:53:55;;;;;;;0.88;0.70;;;21.80;64.50;;;;;;10369863;28;20109;-55
2022/07/12 01:58:56;;;;;;;2.33;0.50;;;21.80;64.50;;;;;;10380976;28;20063;-55
2022/07/12 02:04:01;;;;;;;0.75;0.50;;;21.80;64.30;;;;;;10393860;28;20025;-55
2022/07/12 02:09:02;;;;;;;1.65;0.43;;;21.80;64.10;;;;;;10383809;28;20040;-56
2022/07/12 02:14:03;;;;;;;1.00;0.38;;;21.80;64.10;;;;;;10368967;28;20366;-54
2022/07/12 02:19:04;;;;;;;2.10;0.90;;;21.70;64.00;;;;;;10383702;28;20417;-55
2022/07/12 02:24:07;;;;;;;0.40;0.40;;;21.70;63.80;;;;;;10394434;28;20104;-55
2022/07/12 02:29:08;;;;;;;0.40;0.40;;;21.70;63.80;;;;;;10369748;28;20035;-56
2022/07/12 02:34:09;;;;;;;2.08;0.68;;;21.70;63.60;;;;;;10396027;28;20469;-55
2022/07/12 02:39:11;;;;;;;2.38;0.60;;;21.70;63.40;;;;;;10395524;28;20046;-55
2022/07/12 02:44:11;;;;;;;2.70;0.73;;;21.70;63.30;;;;;;10381149;28;20025;-55
2022/07/12 02:49:12;;;;;;;0.70;0.60;;;21.70;63.20;;;;;;10392927;28;20025;-55
2022/07/12 02:54:13;;;;;;;0.57;0.50;;;21.70;63.10;;;;;;10406761;28;20030;-57
2022/07/12 02:59:13;;;;;;;1.05;0.65;;;21.70;63.10;;;;;;10400887;28;20061;-55
2022/07/12 03:04:15;;;;;;;0.77;0.50;;;21.70;63.10;;;;;;10367507;28;20431;-55
2022/07/12 03:09:16;;;;;;;0.73;0.50;;;21.70;63.00;;;;;;10385219;28;20041;-55
2022/07/12 03:14:16;;;;;;;1.25;0.82;;;21.60;62.80;;;;;;10380065;28;20421;-56
2022/07/12 03:19:17;;;;;;;0.43;0.43;;;21.60;62.70;;;;;;10362717;28;20022;-56
2022/07/12 03:24:18;;;;;;;1.52;0.80;;;21.60;62.70;;;;;;10373251;28;20772;-55
2022/07/12 03:29:19;;;;;;;0.80;0.50;;;21.60;62.60;;;;;;10366446;28;20061;-55
2022/07/12 03:34:20;;;;;;;0.82;0.60;;;21.60;62.50;;;;;;10380580;28;20497;-56
2022/07/12 03:39:20;;;;;;;0.80;0.47;;;21.60;62.40;;;;;;10367236;28;20084;-56
2022/07/12 03:44:21;;;;;;;0.68;0.43;;;21.60;62.40;;;;;;10389598;28;20053;-56
2022/07/12 03:49:22;;;;;;;0.55;0.50;;;21.60;62.30;;;;;;10394867;28;20103;-56
2022/07/12 03:54:23;;;;;;;1.10;0.50;;;21.60;62.30;;;;;;10389166;28;20030;-56
2022/07/12 03:59:23;;;;;;;0.88;0.57;;;21.60;62.10;;;;;;10379757;28;20025;-55
2022/07/12 04:04:24;;;;;;;0.90;0.60;;;21.60;62.10;;;;;;10390460;28;20108;-56
2022/07/12 04:09:25;;;;;;;1.20;0.50;;;21.60;62.00;;;;;;10385509;28;20413;-55
2022/07/12 04:14:28;;;;;;;0.35;0.32;;;21.60;62.00;;;;;;10415746;28;20036;-55
2022/07/12 04:19:31;;;;;;;0.77;0.55;;;21.50;61.90;;;;;;10390849;28;20064;-56
2022/07/12 04:24:32;;;;;;;1.20;0.70;;;21.50;61.90;;;;;;10395981;28;20029;-56
2022/07/12 04:29:33;;;;;;;0.40;0.40;;;21.50;61.80;;;;;;10392191;28;20026;-56
2022/07/12 04:34:34;;;;;;;1.33;0.57;;;21.50;61.90;;;;;;10398348;28;20389;-54
2022/07/12 04:39:35;;;;;;;1.20;0.70;;;21.50;61.80;;;;;;10379446;28;20864;-56
2022/07/12 04:44:36;;;;;;;4.03;0.70;;;21.50;61.60;;;;;;10387113;28;20531;-55
2022/07/12 04:49:37;;;;;;;2.13;1.70;;;21.60;62.60;;;;;;10391243;28;20029;-56
2022/07/12 04:54:38;;;;;;;3.47;1.58;;;21.60;62.60;;;;;;10394623;28;20037;-57
2022/07/12 04:59:39;;;;;;;2.72;0.70;;;21.70;63.00;;;;;;10382972;28;20124;-57
2022/07/12 05:04:39;;;;;;;2.63;0.75;;;21.70;63.90;;;;;;10380654;28;20045;-57
2022/07/12 05:09:40;;;;;;;4.00;0.80;;;21.70;63.90;;;;;;10378182;28;20109;-57
2022/07/12 05:14:41;;;;;;;7.03;0.90;;;21.70;63.80;;;;;;10378623;28;20042;-54
2022/07/12 05:19:41;;;;;;;8.18;0.88;;;21.70;64.00;;;;;;10381474;28;20480;-55
2022/07/12 05:24:43;;;;;;;8.77;1.05;;;21.70;64.20;;;;;;10397073;28;20043;-55
2022/07/12 05:29:44;;;;;;;7.38;1.60;;;21.70;64.20;;;;;;10406968;28;20088;-55
2022/07/12 05:34:45;;;;;;;13.57;1.35;;;21.70;64.50;;;;;;10395106;28;20116;-55
2022/07/12 05:39:45;;;;;;;7.97;0.90;;;21.70;64.50;;;;;;10392741;28;20057;-56
2022/07/12 05:44:46;;;;;;;14.35;2.08;;;21.80;64.60;;;;;;10384824;28;20104;-57
2022/07/12 05:49:47;;;;;;;7.22;1.20;;;21.80;64.50;;;;;;10392577;28;20033;-57
2022/07/12 05:54:47;;;;;;;6.53;1.45;;;21.70;65.10;;;;;;10391975;28;20055;-55
2022/07/12 05:59:48;;;;;;;12.70;2.47;;;21.70;64.60;;;;;;10398809;28;20124;-57
2022/07/12 06:04:49;;;;;;;11.73;2.45;;;21.70;65.00;;;;;;10398685;28;20029;-56
2022/07/12 06:09:50;;;;;;;11.18;2.22;;;21.80;65.10;;;;;;10382743;28;20033;-56
2022/07/12 06:14:50;;;;;;;9.05;2.33;;;21.80;65.50;;;;;;10381861;28;20105;-55
2022/07/12 06:19:51;;;;;;;8.70;1.60;;;21.80;65.30;;;;;;10410418;28;20040;-56
2022/07/12 06:24:52;;;;;;;7.30;1.52;;;21.80;65.20;;;;;;10397598;28;20068;-56
2022/07/12 06:29:53;;;;;;;9.95;3.20;;;21.70;65.10;;;;;;10367952;28;20032;-56
2022/07/12 06:34:53;;;;;;;11.57;1.70;;;21.70;65.10;;;;;;10385443;28;20033;-57
2022/07/12 06:39:54;;;;;;;7.38;1.60;;;21.70;65.30;;;;;;10407664;28;20136;-57
2022/07/12 06:44:55;;;;;;;14.48;4.05;;;21.70;65.50;;;;;;10386562;28;20034;-57
2022/07/12 06:49:57;;;;;;;7.80;2.42;;;21.70;65.80;;;;;;10391071;28;20185;-59
2022/07/12 06:54:58;;;;;;;6.13;2.22;;;21.70;65.90;;;;;;10389421;28;20086;-58
2022/07/12 06:59:59;;;;;;;7.90;1.92;;;21.70;66.00;;;;;;10393610;28;20037;-57
2022/07/12 07:05:00;;;;;;;5.85;2.20;;;21.70;66.10;;;;;;10390625;28;20041;-59
2022/07/12 07:10:01;;;;;;;8.85;2.53;;;21.80;66.20;;;;;;10380588;28;20382;-57
2022/07/12 07:15:02;;;;;;;6.90;1.85;;;21.80;66.10;;;;;;10376734;28;20156;-56
2022/07/12 07:20:03;;;;;;;6.10;1.80;;;21.80;65.90;;;;;;10392663;28;20096;-58
2022/07/12 07:25:05;;;;;;;3.75;2.20;;;21.80;65.90;;;;;;10394744;28;20397;-58
2022/07/12 07:35:26;;;;;;;6.45;2.25;;;21.80;66.10;;;;;;10390920;28;20775;-57
2022/07/12 07:40:27;;;;;;;5.30;2.50;;;21.90;66.40;;;;;;10386703;28;20050;-57
2022/07/12 07:45:27;;;;;;;4.97;1.92;;;21.90;66.60;;;;;;10397880;28;20040;-57
2022/07/12 07:50:29;;;;;;;5.15;2.15;;;21.90;66.50;;;;;;10401270;28;20128;-56
2022/07/12 07:55:30;;;;;;;6.88;2.15;;;21.90;66.50;;;;;;10391388;28;20084;-58
2022/07/12 08:00:31;;;;;;;3.90;1.80;;;21.90;66.10;;;;;;10391118;28;20117;-56
2022/07/12 08:05:31;;;;;;;4.65;1.80;;;21.90;66.10;;;;;;10380662;28;20036;-56
2022/07/12 08:10:33;;;;;;;4.90;2.13;;;21.90;66.10;;;;;;10379855;28;20057;-58
2022/07/12 08:15:34;;;;;;;5.65;2.28;;;21.90;66.20;;;;;;10375166;28;20564;-57
2022/07/12 08:20:34;;;;;;;4.70;1.80;;;21.90;66.20;;;;;;10411217;28;20043;-56
2022/07/12 08:25:35;;;;;;;2.58;1.50;;;21.90;66.10;;;;;;10388935;28;20034;-57
2022/07/12 08:30:36;;;;;;;5.85;1.77;;;21.90;66.10;;;;;;10399723;28;20030;-57
2022/07/12 08:35:37;;;;;;;3.75;1.58;;;21.90;66.10;;;;;;10375301;28;20133;-58
2022/07/12 08:40:38;;;;;;;4.13;2.22;;;22.00;66.20;;;;;;10409223;28;20049;-57
2022/07/12 08:45:40;;;;;;;3.72;2.03;;;22.00;66.10;;;;;;10383575;28;20393;-58
2022/07/12 08:50:41;;;;;;;5.15;2.25;;;22.00;66.10;;;;;;10400218;28;20068;-57
2022/07/12 08:55:42;;;;;;;2.63;1.30;;;22.00;66.10;;;;;;10392554;28;20116;-57
2022/07/12 09:00:43;;;;;;;3.13;1.80;;;22.00;66.00;;;;;;10377510;28;20041;-57
2022/07/12 09:05:54;;;;;;;4.45;1.98;;;22.00;66.00;;;;;;10404517;28;20083;-58
2022/07/12 09:10:56;;;;;;;2.85;1.40;;;22.00;66.00;;;;;;10394993;28;20100;-58
2022/07/12 09:16:16;;;;;;;2.20;1.33;;;22.00;66.00;;;;;;10382696;28;20550;-57
2022/07/12 09:21:29;;;;;;;3.75;2.13;;;22.00;65.90;;;;;;10382296;28;20026;-57
2022/07/12 09:26:32;;;;;;;3.15;1.50;;;22.00;65.90;;;;;;10383549;28;20523;-56
2022/07/12 09:37:08;;;;;;;3.40;1.60;;;22.00;65.90;;;;;;10358351;28;1065498;-57
2022/07/12 09:42:12;;;;;;;3.78;1.77;;;22.00;65.90;;;;;;10383924;28;20065;-57
2022/07/12 09:47:17;;;;;;;3.08;1.85;;;22.10;65.90;;;;;;10395580;28;20048;-57
2022/07/12 09:52:28;;;;;;;2.80;1.60;;;22.10;65.70;;;;;;10385261;28;20037;-58
2022/07/12 09:57:33;;;;;;;1.75;1.20;;;22.10;65.70;;;;;;10396547;28;20029;-57
2022/07/12 10:02:35;;;;;;;2.58;1.70;;;22.10;65.70;;;;;;10384832;28;20037;-58
2022/07/12 10:07:38;;;;;;;3.42;1.73;;;22.10;65.70;;;;;;10390516;28;20806;-58
2022/07/12 10:12:40;;;;;;;2.28;1.42;;;22.10;65.60;;;;;;10369591;28;20365;-57
2022/07/12 10:17:54;;;;;;;4.57;2.22;;;22.10;65.60;;;;;;10369221;28;20103;-57
2022/07/12 10:23:17;;;;;;;1.73;1.40;;;22.20;65.70;;;;;;10386763;28;20057;-59
2022/07/12 10:28:17;;;;;;;3.47;1.35;;;22.20;65.70;;;;;;10395645;28;20079;-58
2022/07/12 10:33:23;;;;;;;4.20;2.28;;;22.20;65.60;;;;;;10372544;28;20026;-57
2022/07/12 10:38:25;;;;;;;4.45;1.85;;;22.20;65.60;;;;;;10376251;28;20045;-56
2022/07/12 10:48:49;;;;;;;8.63;1.80;;;22.30;65.70;;;;;;10386629;28;20046;-66
2022/07/12 10:53:50;;;;;;;4.07;1.52;;;22.30;66.70;;;;;;10385947;28;20018;-64
2022/07/12 10:58:59;;;;;;;3.10;1.73;;;22.40;68.00;;;;;;10386623;28;20866;-64
2022/07/12 11:04:09;;;;;;;2.95;2.00;;;22.40;66.10;;;;;;10380627;28;20033;-66
2022/07/12 11:09:12;;;;;;;2.88;1.50;;;22.40;67.20;;;;;;10386189;28;20120;-62
2022/07/12 11:14:32;;;;;;;2.60;2.05;;;22.40;66.10;;;;;;10370926;28;20442;-62
2022/07/12 11:19:33;;;;;;;4.97;1.95;;;22.40;66.20;;;;;;10389677;28;20507;-63
2022/07/12 11:24:37;;;;;;;3.05;1.73;;;22.40;66.10;;;;;;10384231;28;20032;-63
2022/07/12 11:29:37;;;;;;;3.08;1.50;;;22.40;66.00;;;;;;10378681;28;20034;-62
2022/07/12 11:34:38;;;;;;;2.03;1.52;;;22.40;66.00;;;;;;10376873;28;20033;-63
2022/07/12 11:39:40;;;;;;;2.60;1.23;;;22.40;66.10;;;;;;10380286;28;20680;-60
2022/07/12 11:44:47;;;;;;;2.47;2.05;;;22.40;66.10;;;;;;10376056;28;20081;-60
2022/07/12 11:49:55;;;;;;;2.85;1.88;;;22.50;66.10;;;;;;10389181;28;20037;-60
2022/07/12 11:54:57;;;;;;;5.03;2.60;;;22.50;66.00;;;;;;10382087;28;20036;-60
2022/07/12 11:59:57;;;;;;;3.97;2.00;;;22.50;65.80;;;;;;10378238;28;20534;-59
2022/07/12 12:04:58;;;;;;;4.28;2.20;;;22.50;65.70;;;;;;10380786;28;20035;-60
2022/07/12 12:10:14;;;;;;;3.63;1.80;;;22.50;65.50;;;;;;10374194;28;20037;-60
2022/07/12 12:15:27;;;;;;;3.70;2.28;;;22.60;65.60;;;;;;10365790;28;20955;-60
2022/07/12 12:20:34;;;;;;;2.60;1.95;;;22.60;65.60;;;;;;10387764;28;20045;-60
2022/07/12 12:25:35;;;;;;;4.32;2.60;;;22.60;65.60;;;;;;10379939;28;20069;-60
2022/07/12 12:30:55;;;;;;;2.80;2.47;;;22.60;65.50;;;;;;10381302;28;20557;-61
2022/07/12 12:35:56;;;;;;;3.35;2.20;;;22.60;65.20;;;;;;10395148;28;20104;-62
2022/07/12 12:40:56;;;;;;;4.47;2.65;;;22.70;65.40;;;;;;10402503;28;20834;-61
2022/07/12 12:45:57;;;;;;;6.22;2.30;;;22.60;65.50;;;;;;10400634;28;20512;-61
2022/07/12 12:51:10;;;;;;;5.22;2.67;;;22.70;65.40;;;;;;10389403;28;20061;-62
2022/07/12 12:56:14;;;;;;;4.22;2.90;;;22.70;65.30;;;;;;10390797;28;20025;-62
2022/07/12 13:01:14;;;;;;;5.13;2.92;;;22.70;65.10;;;;;;10408404;28;20037;-63
2022/07/12 13:06:15;;;;;;;4.35;2.80;;;22.70;65.10;;;;;;10392427;28;20048;-62
2022/07/12 13:11:18;;;;;;;4.38;2.90;;;22.70;65.30;;;;;;10411234;28;20026;-63
2022/07/12 13:16:19;;;;;;;4.18;3.28;;;22.70;65.50;;;;;;10399734;28;20412;-62
2022/07/12 13:21:20;;;;;;;7.25;3.65;;;22.70;65.40;;;;;;10393076;28;20030;-62
2022/07/12 13:26:21;;;;;;;5.43;3.10;;;22.70;65.70;;;;;;10410693;28;20034;-62
2022/07/12 13:31:22;;;;;;;5.40;3.47;;;22.70;65.50;;;;;;10380476;28;20030;-63
2022/07/12 13:36:23;;;;;;;10.50;3.80;;;22.70;65.50;;;;;;10387037;28;20087;-62
2022/07/12 13:41:23;;;;;;;8.60;3.65;;;22.80;65.50;;;;;;10381955;28;20099;-64
2022/07/12 13:46:24;;;;;;;8.95;4.03;;;22.80;65.30;;;;;;10385669;28;20527;-64
2022/07/12 13:51:25;;;;;;;17.08;4.40;;;22.80;65.60;;;;;;10373387;28;20036;-64
2022/07/12 13:56:26;;;;;;;11.77;3.95;;;22.90;65.50;;;;;;10379149;28;20046;-62
2022/07/12 14:01:26;;;;;;;6.90;4.18;;;23.00;65.40;;;;;;10369415;28;20030;-62
2022/07/12 14:06:28;;;;;;;8.93;3.83;;;22.90;65.30;;;;;;10352826;28;20029;-62
2022/07/12 14:11:29;;;;;;;7.38;3.80;;;22.80;65.20;;;;;;10368805;28;20107;-62
2022/07/12 14:16:30;;;;;;;5.13;2.80;;;22.80;65.40;;;;;;10361815;28;20549;-62
2022/07/12 14:21:31;;;;;;;5.28;4.00;;;22.80;63.90;;;;;;10380157;28;20492;-62
2022/07/12 14:26:31;;;;;;;7.68;3.97;;;22.90;64.70;;;;;;10369835;28;20370;-61
2022/07/12 14:31:32;;;;;;;7.97;3.20;;;22.90;64.80;;;;;;10376342;28;20534;-61
2022/07/12 14:36:33;;;;;;;8.40;4.30;;;22.90;65.10;;;;;;10391399;28;20033;-62
2022/07/12 14:41:33;;;;;;;7.72;4.80;;;23.00;65.20;;;;;;10378961;28;20133;-60
2022/07/12 14:46:34;;;;;;;6.22;3.97;;;23.00;67.00;;;;;;10364155;28;20026;-62
2022/07/12 14:51:35;;;;;;;8.68;4.28;;;23.00;66.10;;;;;;10374218;28;20087;-61
2022/07/12 14:56:36;;;;;;;5.65;4.13;;;23.20;62.90;;;;;;10391875;28;20036;-61
2022/07/12 15:01:37;;;;;;;8.13;3.35;;;23.20;64.70;;;;;;10393223;28;20038;-61
2022/07/12 15:06:38;;;;;;;6.65;6.05;;;23.10;64.50;;;;;;10384277;28;20112;-60
2022/07/12 15:11:40;;;;;;;5.75;4.55;;;23.10;68.20;;;;;;10390011;28;20369;-61
2022/07/12 15:16:41;;;;;;;5.13;4.03;;;23.10;68.10;;;;;;10363243;28;20099;-61
2022/07/12 15:21:41;;;;;;;7.43;3.47;;;23.00;67.30;;;;;;10357575;28;20370;-61
2022/07/12 15:26:42;;;;;;;7.28;3.60;;;23.00;66.70;;;;;;10377750;28;20040;-61
2022/07/12 15:31:44;;;;;;;11.63;4.15;;;23.00;66.20;;;;;;10407970;28;20041;-61
2022/07/12 15:36:45;;;;;;;5.60;3.10;;;22.90;66.30;;;;;;10382874;28;20030;-61
2022/07/12 15:41:45;;;;;;;6.97;3.42;;;22.90;66.30;;;;;;10373512;28;20436;-62
2022/07/12 15:46:46;;;;;;;5.15;3.00;;;22.80;66.40;;;;;;10366381;28;20038;-62
2022/07/12 15:57:06;;;;;;;;;;;22.80;66.40;;;;;;10367221;28;20037;-62
2022/07/12 16:02:08;;;;;;;3.75;2.63;;;22.80;66.60;;;;;;10395423;28;19913;-62
2022/07/12 16:07:11;;;;;;;3.70;2.92;;;22.70;66.40;;;;;;10397901;28;20026;-63
2022/07/12 16:12:11;;;;;;;6.38;2.67;;;22.70;66.40;;;;;;10400122;28;20032;-62
2022/07/12 16:17:14;;;;;;;8.77;2.83;;;22.80;66.50;;;;;;10406669;28;20504;-62
2022/07/12 16:22:15;;;;;;;5.07;3.47;;;22.90;66.50;;;;;;10381276;28;20389;-62
2022/07/12 16:27:15;;;;;;;4.55;3.17;;;22.90;65.40;;;;;;10397543;28;20044;-62
2022/07/12 16:32:16;;;;;;;5.70;3.45;;;22.90;64.40;;;;;;10397922;28;20114;-62
2022/07/12 16:37:17;;;;;;;4.60;3.22;;;22.90;64.20;;;;;;10406439;28;20084;-62
2022/07/12 16:42:18;;;;;;;5.30;3.47;;;22.80;64.50;;;;;;10389107;28;20466;-62
2022/07/12 16:47:19;;;;;;;6.68;3.40;;;22.90;64.90;;;;;;10373097;28;20091;-61
2022/07/12 16:52:20;;;;;;;6.57;3.55;;;23.00;64.40;;;;;;10393153;28;20167;-62
2022/07/12 16:57:22;;;;;;;4.95;3.50;;;23.00;64.30;;;;;;10390918;28;20168;-62
2022/07/12 17:02:23;;;;;;;4.45;3.60;;;22.90;64.20;;;;;;10387677;28;20033;-61
2022/07/12 17:07:24;;;;;;;6.63;3.92;;;23.00;64.70;;;;;;10383629;28;20040;-62
2022/07/12 17:12:25;;;;;;;5.97;4.07;;;23.00;65.20;;;;;;10383680;28;20133;-62
2022/07/12 17:17:26;;;;;;;5.60;4.55;;;23.00;64.60;;;;;;10399047;28;20033;-62
2022/07/12 17:22:27;;;;;;;5.68;4.38;;;23.00;65.00;;;;;;10387712;28;20071;-62
2022/07/12 17:27:28;;;;;;;6.65;5.32;;;23.00;64.90;;;;;;10384182;28;20030;-62
2022/07/12 17:32:29;;;;;;;7.15;5.93;;;23.00;65.70;;;;;;10369184;28;20041;-60
2022/07/12 17:37:30;;;;;;;6.90;6.20;;;23.00;66.30;;;;;;10386509;28;20761;-63
2022/07/12 17:42:31;;;;;;;8.88;7.22;;;23.00;66.70;;;;;;10370357;28;20044;-63
2022/07/12 17:47:32;;;;;;;6.57;5.70;;;23.00;67.20;;;;;;10373466;28;20034;-63
2022/07/12 17:52:33;;;;;;;7.97;5.25;;;23.20;66.40;;;;;;10395282;28;20046;-62
2022/07/12 17:57:34;;;;;;;11.25;5.07;;;23.10;66.90;;;;;;10383100;28;20184;-60
2022/07/12 18:02:35;;;;;;;8.93;4.30;;;23.10;67.20;;;;;;10379065;28;20100;-60
2022/07/12 18:07:36;;;;;;;7.53;4.97;;;23.00;67.50;;;;;;10370267;28;20038;-59
2022/07/12 18:18:01;;;;;;;9.13;4.38;;;23.10;68.10;;;;;;10396178;28;20041;-59
2022/07/12 18:23:02;;;;;;;7.72;5.28;;;23.10;68.20;;;;;;10382466;28;20525;-59
2022/07/12 18:28:04;;;;;;;7.15;5.47;;;23.00;69.10;;;;;;10384434;28;20030;-59
2022/07/12 18:33:05;;;;;;;7.85;5.85;;;23.00;69.40;;;;;;10400434;28;20040;-59
2022/07/12 18:38:06;;;;;;;5.95;4.30;;;23.00;68.60;;;;;;10394418;28;20053;-59
2022/07/12 18:43:07;;;;;;;6.60;4.85;;;23.00;68.40;;;;;;10369824;28;20036;-58
2022/07/12 18:48:07;;;;;;;7.88;5.47;;;23.00;69.40;;;;;;10379710;28;20037;-59
2022/07/12 18:53:08;;;;;;;6.35;4.50;;;23.00;69.50;;;;;;10398510;28;20562;-59
2022/07/12 18:58:09;;;;;;;7.20;5.97;;;23.00;69.30;;;;;;10385726;28;20751;-59
2022/07/12 19:03:09;;;;;;;5.38;4.60;;;22.90;69.50;;;;;;10377896;28;20030;-59
2022/07/12 19:08:10;;;;;;;4.97;4.47;;;22.90;69.70;;;;;;10376268;28;20029;-59
2022/07/12 19:13:11;;;;;;;4.78;4.00;;;22.90;69.80;;;;;;10379641;28;20520;-59
2022/07/12 19:18:11;;;;;;;5.57;4.13;;;22.90;69.90;;;;;;10383922;28;20022;-60
2022/07/12 19:23:12;;;;;;;5.50;4.30;;;22.90;69.50;;;;;;10385058;28;20033;-61
2022/07/12 19:28:13;;;;;;;9.32;4.10;;;22.90;68.50;;;;;;10396169;28;20489;-60
2022/07/12 19:33:14;;;;;;;7.85;4.63;;;22.90;69.10;;;;;;10383569;28;20096;-60
2022/07/12 19:38:15;;;;;;;7.03;4.43;;;22.90;68.60;;;;;;10381854;28;20045;-60
2022/07/12 19:43:15;;;;;;;6.72;4.22;;;22.90;68.80;;;;;;10376089;28;20732;-60
2022/07/12 19:48:16;;;;;;;5.07;4.15;;;22.90;67.60;;;;;;10394458;28;20040;-60
2022/07/12 19:53:17;;;;;;;4.32;3.90;;;22.90;67.60;;;;;;10378935;28;20167;-60
2022/07/12 19:58:18;;;;;;;5.88;3.42;;;22.90;67.70;;;;;;10372350;28;20743;-60
2022/07/12 20:03:18;;;;;;;5.45;4.03;;;22.90;68.70;;;;;;10373932;28;20050;-60
2022/07/12 20:08:19;;;;;;;5.20;4.10;;;22.80;68.30;;;;;;10371273;28;20056;-60
2022/07/12 20:13:21;;;;;;;4.20;3.80;;;22.90;67.70;;;;;;10385732;28;20354;-60
2022/07/12 20:18:21;;;;;;;4.35;3.80;;;22.90;67.60;;;;;;10412220;28;20112;-60
2022/07/12 20:23:22;;;;;;;5.43;4.43;;;22.90;67.50;;;;;;10394729;28;20564;-60
2022/07/12 20:28:23;;;;;;;4.75;3.60;;;22.90;67.50;;;;;;10374240;28;20491;-60
2022/07/12 20:38:44;;;;;;;6.57;3.72;;;22.90;67.70;;;;;;10377946;28;20054;-60
2022/07/12 20:43:47;;;;;;;4.38;3.97;;;22.90;67.50;;;;;;10374430;28;20105;-60
2022/07/12 20:48:48;;;;;;;4.00;3.60;;;22.80;67.50;;;;;;10391136;28;20037;-61
2022/07/12 20:53:49;;;;;;;4.60;3.78;;;22.80;68.00;;;;;;10392826;28;20100;-60
2022/07/12 20:58:50;;;;;;;4.18;3.72;;;22.80;67.40;;;;;;10373322;28;20041;-61
2022/07/12 21:03:51;;;;;;;4.65;3.55;;;22.80;67.80;;;;;;10373242;28;20034;-61
2022/07/12 21:08:52;;;;;;;3.55;3.22;;;22.80;67.60;;;;;;10371717;28;20041;-60
2022/07/12 21:13:53;;;;;;;4.75;3.25;;;22.80;67.90;;;;;;10378322;28;20033;-61
2022/07/12 21:18:54;;;;;;;4.70;3.85;;;22.80;67.80;;;;;;10377243;28;20113;-60
2022/07/12 21:23:54;;;;;;;6.60;3.45;;;22.80;67.90;;;;;;10371254;28;20520;-60
2022/07/12 21:28:57;;;;;;;3.45;2.97;;;22.80;67.50;;;;;;10372048;28;20056;-60
2022/07/12 21:33:58;;;;;;;3.75;3.30;;;22.80;68.00;;;;;;10370673;28;20025;-60
2022/07/12 21:38:59;;;;;;;3.95;3.20;;;22.80;68.00;;;;;;10382874;28;20049;-60
2022/07/12 21:44:00;;;;;;;5.13;3.33;;;22.80;67.80;;;;;;10370126;28;20113;-61
2022/07/12 21:49:01;;;;;;;3.35;3.05;;;22.80;67.70;;;;;;10380371;28;20038;-60
2022/07/12 21:54:01;;;;;;;3.80;3.47;;;22.80;67.70;;;;;;10388658;28;20025;-60
2022/07/12 21:59:02;;;;;;;4.40;3.35;;;22.80;67.60;;;;;;10390891;28;20505;-60
2022/07/12 22:04:04;;;;;;;5.72;3.35;;;22.80;67.60;;;;;;10387868;28;20025;-60
2022/07/12 22:09:04;;;;;;;4.40;3.95;;;22.80;67.50;;;;;;10410279;28;20473;-60
2022/07/12 22:14:05;;;;;;;4.93;3.67;;;22.80;67.40;;;;;;10402907;28;20026;-60
2022/07/12 22:19:07;;;;;;;3.55;2.80;;;22.80;67.50;;;;;;10393192;28;20100;-60
2022/07/12 22:24:07;;;;;;;3.67;3.35;;;22.80;67.50;;;;;;10391920;28;20052;-60
2022/07/12 22:29:08;;;;;;;3.90;2.72;;;22.80;67.70;;;;;;10393864;28;20112;-60
2022/07/12 22:34:09;;;;;;;3.47;3.10;;;22.80;67.70;;;;;;10381172;28;20080;-60
2022/07/12 22:39:10;;;;;;;4.82;3.70;;;22.80;67.60;;;;;;10383443;28;20524;-61
2022/07/12 22:44:10;;;;;;;3.65;3.35;;;22.80;67.30;;;;;;10391933;28;20026;-61
2022/07/12 22:49:11;;;;;;;3.88;3.33;;;22.80;67.40;;;;;;10369107;28;20030;-61
2022/07/12 22:54:12;;;;;;;3.80;3.40;;;22.80;67.60;;;;;;10386135;28;20034;-59
2022/07/12 22:59:13;;;;;;;4.53;3.25;;;22.80;67.60;;;;;;10385851;28;20128;-61
2022/07/12 23:04:14;;;;;;;4.38;3.00;;;22.80;67.30;;;;;;10377567;28;20087;-60
2022/07/12 23:09:14;;;;;;;4.90;4.10;;;22.80;67.20;;;;;;10388642;28;20029;-60
2022/07/12 23:14:15;;;;;;;3.72;3.42;;;22.80;67.20;;;;;;10391031;28;20122;-60
2022/07/12 23:19:16;;;;;;;3.75;2.92;;;22.80;67.40;;;;;;10367167;28;20120;-59
2022/07/12 23:24:17;;;;;;;4.10;3.25;;;22.80;67.30;;;;;;10373101;28;20026;-60
2022/07/12 23:29:17;;;;;;;4.15;3.67;;;22.80;67.20;;;;;;10406922;28;20041;-60
2022/07/12 23:34:18;;;;;;;3.95;3.45;;;22.80;67.30;;;;;;10377737;28;20116;-60
2022/07/12 23:39:19;;;;;;;4.05;3.67;;;22.80;67.40;;;;;;10407335;28;20055;-60
2022/07/12 23:44:20;;;;;;;3.72;3.20;;;22.70;67.30;;;;;;10385021;28;20512;-61
2022/07/12 23:49:20;;;;;;;4.07;3.67;;;22.80;67.20;;;;;;10380916;28;20045;-60
2022/07/12 23:54:21;;;;;;;4.65;3.80;;;22.70;67.30;;;;;;10366723;28;20523;-60
2022/07/12 23:59:22;;;;;;;4.05;3.38;;;22.80;67.30;;;;;;10367521;28;20469;-61
